sensor_id;sensor_type;location;lat;lon;timestamp;temperature;humidity
51908;DHT22;39320;53.214;6.556;2022-09-23T00:01:01;14.20;99.90
51908;DHT22;39320;53.214;6.556;2022-09-23T00:03:29;14.30;99.90
51908;DHT22;39320;53.214;6.556;2022-09-23T00:06:00;14.20;99.90
51908;DHT22;39320;53.214;6.556;2022-09-23T00:08:27;14.30;99.90
51908;DHT22;39320;53.214;6.556;2022-09-23T00:10:53;14.20;99.90
51908;DHT22;39320;53.214;6.556;2022-09-23T00:13:20;14.20;99.90
51908;DHT22;39320;53.214;6.556;2022-09-23T00:15:46;14.20;99.90
51908;DHT22;39320;53.214;6.556;2022-09-23T00:18:12;14.10;99.90
51908;DHT22;39320;53.214;6.556;2022-09-23T00:20:38;14.10;99.90
51908;DHT22;39320;53.214;6.556;2022-09-23T00:23:04;14.10;99.90
51908;DHT22;39320;53.214;6.556;2022-09-23T00:25:30;14.10;99.90
51908;DHT22;39320;53.214;6.556;2022-09-23T00:27:56;14.10;99.90
51908;DHT22;39320;53.214;6.556;2022-09-23T00:30:23;14.10;99.90
51908;DHT22;39320;53.214;6.556;2022-09-23T00:32:49;14.10;99.90
51908;DHT22;39320;53.214;6.556;2022-09-23T00:35:17;14.10;99.90
51908;DHT22;39320;53.214;6.556;2022-09-23T00:37:43;14.10;99.90
51908;DHT22;39320;53.214;6.556;2022-09-23T00:40:09;14.10;99.90
51908;DHT22;39320;53.214;6.556;2022-09-23T00:42:44;14.00;99.90
51908;DHT22;39320;53.214;6.556;2022-09-23T00:45:10;14.00;99.90
51908;DHT22;39320;53.214;6.556;2022-09-23T00:47:58;14.10;99.90
51908;DHT22;39320;53.214;6.556;2022-09-23T00:50:38;14.10;99.90
51908;DHT22;39320;53.214;6.556;2022-09-23T00:53:12;14.00;99.90
51908;DHT22;39320;53.214;6.556;2022-09-23T00:55:44;14.10;99.90
51908;DHT22;39320;53.214;6.556;2022-09-23T00:58:14;14.00;99.90
51908;DHT22;39320;53.214;6.556;2022-09-23T01:00:40;14.00;99.90
51908;DHT22;39320;53.214;6.556;2022-09-23T01:03:07;14.00;99.90
51908;DHT22;39320;53.214;6.556;2022-09-23T01:05:34;13.90;99.90
51908;DHT22;39320;53.214;6.556;2022-09-23T01:08:02;13.90;99.90
51908;DHT22;39320;53.214;6.556;2022-09-23T01:10:49;13.90;99.90
51908;DHT22;39320;53.214;6.556;2022-09-23T01:13:28;13.90;99.90
51908;DHT22;39320;53.214;6.556;2022-09-23T01:21:55;13.90;99.90
51908;DHT22;39320;53.214;6.556;2022-09-23T01:24:45;13.90;99.90
51908;DHT22;39320;53.214;6.556;2022-09-23T01:30:10;13.90;99.90
51908;DHT22;39320;53.214;6.556;2022-09-23T01:35:45;13.90;99.90
51908;DHT22;39320;53.214;6.556;2022-09-23T01:38:30;13.80;99.90
51908;DHT22;39320;53.214;6.556;2022-09-23T01:46:34;13.70;99.90
51908;DHT22;39320;53.214;6.556;2022-09-23T01:49:08;13.70;99.90
51908;DHT22;39320;53.214;6.556;2022-09-23T01:51:40;13.70;99.90
51908;DHT22;39320;53.214;6.556;2022-09-23T01:56:39;13.70;99.90
51908;DHT22;39320;53.214;6.556;2022-09-23T01:59:31;13.70;99.90
51908;DHT22;39320;53.214;6.556;2022-09-23T02:02:15;13.70;99.90
51908;DHT22;39320;53.214;6.556;2022-09-23T02:04:48;13.70;99.90
51908;DHT22;39320;53.214;6.556;2022-09-23T02:07:24;13.70;99.90
51908;DHT22;39320;53.214;6.556;2022-09-23T02:10:02;13.70;99.90
51908;DHT22;39320;53.214;6.556;2022-09-23T02:12:33;13.70;99.90
51908;DHT22;39320;53.214;6.556;2022-09-23T02:15:07;13.70;99.90
51908;DHT22;39320;53.214;6.556;2022-09-23T02:17:48;13.70;99.90
51908;DHT22;39320;53.214;6.556;2022-09-23T02:20:21;13.70;99.90
51908;DHT22;39320;53.214;6.556;2022-09-23T02:22:55;13.70;99.90
51908;DHT22;39320;53.214;6.556;2022-09-23T02:25:41;13.70;99.90
51908;DHT22;39320;53.214;6.556;2022-09-23T02:28:19;13.70;99.90
51908;DHT22;39320;53.214;6.556;2022-09-23T02:30:55;13.70;99.90
51908;DHT22;39320;53.214;6.556;2022-09-23T02:33:29;13.70;99.90
51908;DHT22;39320;53.214;6.556;2022-09-23T02:36:07;13.60;99.90
51908;DHT22;39320;53.214;6.556;2022-09-23T02:38:39;13.50;99.90
51908;DHT22;39320;53.214;6.556;2022-09-23T02:46:25;13.60;99.90
51908;DHT22;39320;53.214;6.556;2022-09-23T02:48:55;13.50;99.90
51908;DHT22;39320;53.214;6.556;2022-09-23T02:51:23;13.60;99.90
51908;DHT22;39320;53.214;6.556;2022-09-23T02:53:56;13.50;99.90
51908;DHT22;39320;53.214;6.556;2022-09-23T02:56:23;13.50;99.90
51908;DHT22;39320;53.214;6.556;2022-09-23T02:58:51;13.50;99.90
51908;DHT22;39320;53.214;6.556;2022-09-23T03:01:43;13.50;99.90
51908;DHT22;39320;53.214;6.556;2022-09-23T03:08:24;13.50;99.90
51908;DHT22;39320;53.214;6.556;2022-09-23T03:18:45;13.40;99.90
51908;DHT22;39320;53.214;6.556;2022-09-23T03:23:58;13.30;99.90
51908;DHT22;39320;53.214;6.556;2022-09-23T03:26:33;13.30;99.90
51908;DHT22;39320;53.214;6.556;2022-09-23T03:29:06;13.30;99.90
51908;DHT22;39320;53.214;6.556;2022-09-23T03:31:34;13.30;99.90
51908;DHT22;39320;53.214;6.556;2022-09-23T03:34:05;13.30;99.90
51908;DHT22;39320;53.214;6.556;2022-09-23T03:36:46;13.30;99.90
51908;DHT22;39320;53.214;6.556;2022-09-23T03:39:41;13.30;99.90
51908;DHT22;39320;53.214;6.556;2022-09-23T03:42:17;13.30;99.90
51908;DHT22;39320;53.214;6.556;2022-09-23T03:44:45;13.20;99.90
51908;DHT22;39320;53.214;6.556;2022-09-23T03:47:12;13.20;99.90
51908;DHT22;39320;53.214;6.556;2022-09-23T03:49:41;13.20;99.90
51908;DHT22;39320;53.214;6.556;2022-09-23T03:52:07;13.20;99.90
51908;DHT22;39320;53.214;6.556;2022-09-23T03:54:33;13.20;99.90
51908;DHT22;39320;53.214;6.556;2022-09-23T03:57:00;13.20;99.90
51908;DHT22;39320;53.214;6.556;2022-09-23T03:59:28;13.20;99.90
51908;DHT22;39320;53.214;6.556;2022-09-23T04:01:55;13.20;99.90
51908;DHT22;39320;53.214;6.556;2022-09-23T04:04:21;13.20;99.90
51908;DHT22;39320;53.214;6.556;2022-09-23T04:06:47;13.20;99.90
51908;DHT22;39320;53.214;6.556;2022-09-23T04:09:13;13.20;99.90
51908;DHT22;39320;53.214;6.556;2022-09-23T04:11:39;13.20;99.90
51908;DHT22;39320;53.214;6.556;2022-09-23T04:14:05;13.10;99.90
51908;DHT22;39320;53.214;6.556;2022-09-23T04:16:30;13.20;99.90
51908;DHT22;39320;53.214;6.556;2022-09-23T04:18:56;13.10;99.90
51908;DHT22;39320;53.214;6.556;2022-09-23T04:21:22;13.10;99.90
51908;DHT22;39320;53.214;6.556;2022-09-23T04:23:47;13.10;99.90
51908;DHT22;39320;53.214;6.556;2022-09-23T04:26:13;13.10;99.90
51908;DHT22;39320;53.214;6.556;2022-09-23T04:28:39;13.10;99.90
51908;DHT22;39320;53.214;6.556;2022-09-23T04:31:06;13.10;99.90
51908;DHT22;39320;53.214;6.556;2022-09-23T04:33:32;13.10;99.90
51908;DHT22;39320;53.214;6.556;2022-09-23T04:35:58;13.10;99.90
51908;DHT22;39320;53.214;6.556;2022-09-23T04:38:24;13.10;99.90
51908;DHT22;39320;53.214;6.556;2022-09-23T04:40:50;13.10;99.90
51908;DHT22;39320;53.214;6.556;2022-09-23T04:43:15;13.10;99.90
51908;DHT22;39320;53.214;6.556;2022-09-23T04:45:42;13.10;99.90
51908;DHT22;39320;53.214;6.556;2022-09-23T04:48:09;13.10;99.90
51908;DHT22;39320;53.214;6.556;2022-09-23T04:50:35;13.10;99.90
51908;DHT22;39320;53.214;6.556;2022-09-23T04:53:02;13.10;99.90
51908;DHT22;39320;53.214;6.556;2022-09-23T04:55:28;13.00;99.90
51908;DHT22;39320;53.214;6.556;2022-09-23T04:57:54;13.10;99.90
51908;DHT22;39320;53.214;6.556;2022-09-23T05:00:19;13.00;99.90
51908;DHT22;39320;53.214;6.556;2022-09-23T05:02:48;13.00;99.90
51908;DHT22;39320;53.214;6.556;2022-09-23T05:05:16;12.90;99.90
51908;DHT22;39320;53.214;6.556;2022-09-23T05:07:46;12.90;99.90
51908;DHT22;39320;53.214;6.556;2022-09-23T05:10:13;13.00;99.90
51908;DHT22;39320;53.214;6.556;2022-09-23T05:12:39;13.00;99.90
51908;DHT22;39320;53.214;6.556;2022-09-23T05:15:05;13.00;99.90
51908;DHT22;39320;53.214;6.556;2022-09-23T05:17:31;13.00;99.90
51908;DHT22;39320;53.214;6.556;2022-09-23T05:19:59;13.00;99.90
51908;DHT22;39320;53.214;6.556;2022-09-23T05:22:25;13.00;99.90
51908;DHT22;39320;53.214;6.556;2022-09-23T05:24:53;12.90;99.90
51908;DHT22;39320;53.214;6.556;2022-09-23T05:27:19;12.90;99.90
51908;DHT22;39320;53.214;6.556;2022-09-23T05:29:45;13.00;99.90
51908;DHT22;39320;53.214;6.556;2022-09-23T05:32:12;13.00;99.90
51908;DHT22;39320;53.214;6.556;2022-09-23T05:34:39;13.00;99.90
51908;DHT22;39320;53.214;6.556;2022-09-23T05:37:04;12.90;99.90
51908;DHT22;39320;53.214;6.556;2022-09-23T05:39:30;12.90;99.90
51908;DHT22;39320;53.214;6.556;2022-09-23T05:41:56;12.90;99.90
51908;DHT22;39320;53.214;6.556;2022-09-23T05:44:23;12.90;99.90
51908;DHT22;39320;53.214;6.556;2022-09-23T05:46:48;12.90;99.90
51908;DHT22;39320;53.214;6.556;2022-09-23T05:49:14;12.90;99.90
51908;DHT22;39320;53.214;6.556;2022-09-23T05:51:40;12.90;99.90
51908;DHT22;39320;53.214;6.556;2022-09-23T05:54:06;12.90;99.90
51908;DHT22;39320;53.214;6.556;2022-09-23T05:56:33;12.90;99.90
51908;DHT22;39320;53.214;6.556;2022-09-23T05:59:00;12.90;99.90
51908;DHT22;39320;53.214;6.556;2022-09-23T06:01:29;12.80;99.90
51908;DHT22;39320;53.214;6.556;2022-09-23T06:03:57;12.80;99.90
51908;DHT22;39320;53.214;6.556;2022-09-23T06:06:29;12.90;99.90
51908;DHT22;39320;53.214;6.556;2022-09-23T06:08:55;12.90;99.90
51908;DHT22;39320;53.214;6.556;2022-09-23T06:11:23;12.90;99.90
51908;DHT22;39320;53.214;6.556;2022-09-23T06:13:48;12.90;99.90
51908;DHT22;39320;53.214;6.556;2022-09-23T06:16:18;12.90;99.90
51908;DHT22;39320;53.214;6.556;2022-09-23T06:18:44;12.90;99.90
51908;DHT22;39320;53.214;6.556;2022-09-23T06:21:15;12.90;99.90
51908;DHT22;39320;53.214;6.556;2022-09-23T06:23:42;12.90;99.90
51908;DHT22;39320;53.214;6.556;2022-09-23T06:26:10;12.90;99.90
51908;DHT22;39320;53.214;6.556;2022-09-23T06:28:37;12.90;99.90
51908;DHT22;39320;53.214;6.556;2022-09-23T06:31:11;12.90;99.90
51908;DHT22;39320;53.214;6.556;2022-09-23T06:33:37;12.90;99.90
51908;DHT22;39320;53.214;6.556;2022-09-23T06:36:06;12.90;99.90
51908;DHT22;39320;53.214;6.556;2022-09-23T06:38:32;12.90;99.90
51908;DHT22;39320;53.214;6.556;2022-09-23T06:40:59;13.00;99.90
51908;DHT22;39320;53.214;6.556;2022-09-23T06:43:26;13.00;99.90
51908;DHT22;39320;53.214;6.556;2022-09-23T06:45:53;13.00;99.90
51908;DHT22;39320;53.214;6.556;2022-09-23T06:48:20;13.00;99.90
51908;DHT22;39320;53.214;6.556;2022-09-23T06:50:46;13.00;99.90
51908;DHT22;39320;53.214;6.556;2022-09-23T06:53:14;13.00;99.90
51908;DHT22;39320;53.214;6.556;2022-09-23T06:55:40;13.00;99.90
51908;DHT22;39320;53.214;6.556;2022-09-23T06:58:06;13.00;99.90
51908;DHT22;39320;53.214;6.556;2022-09-23T07:00:34;13.10;99.90
51908;DHT22;39320;53.214;6.556;2022-09-23T07:02:59;13.10;99.90
51908;DHT22;39320;53.214;6.556;2022-09-23T07:05:25;13.10;99.90
51908;DHT22;39320;53.214;6.556;2022-09-23T07:07:51;13.20;99.90
51908;DHT22;39320;53.214;6.556;2022-09-23T07:10:18;13.20;99.90
51908;DHT22;39320;53.214;6.556;2022-09-23T07:12:44;13.20;99.90
51908;DHT22;39320;53.214;6.556;2022-09-23T07:15:10;13.10;99.90
51908;DHT22;39320;53.214;6.556;2022-09-23T07:17:36;13.20;99.90
51908;DHT22;39320;53.214;6.556;2022-09-23T07:20:02;13.30;99.90
51908;DHT22;39320;53.214;6.556;2022-09-23T07:22:28;13.20;99.90
51908;DHT22;39320;53.214;6.556;2022-09-23T07:24:54;13.20;99.90
51908;DHT22;39320;53.214;6.556;2022-09-23T07:27:22;13.30;99.90
51908;DHT22;39320;53.214;6.556;2022-09-23T07:29:49;13.30;99.90
51908;DHT22;39320;53.214;6.556;2022-09-23T07:32:16;13.30;99.90
51908;DHT22;39320;53.214;6.556;2022-09-23T07:34:43;13.30;99.90
51908;DHT22;39320;53.214;6.556;2022-09-23T07:37:12;13.30;99.90
51908;DHT22;39320;53.214;6.556;2022-09-23T07:39:41;13.30;99.90
51908;DHT22;39320;53.214;6.556;2022-09-23T07:42:15;13.30;99.90
51908;DHT22;39320;53.214;6.556;2022-09-23T07:44:41;13.30;99.90
51908;DHT22;39320;53.214;6.556;2022-09-23T07:47:12;13.30;99.90
51908;DHT22;39320;53.214;6.556;2022-09-23T07:49:38;13.30;99.90
51908;DHT22;39320;53.214;6.556;2022-09-23T07:52:04;13.30;99.90
51908;DHT22;39320;53.214;6.556;2022-09-23T07:54:30;13.30;99.90
51908;DHT22;39320;53.214;6.556;2022-09-23T07:56:56;13.40;99.90
51908;DHT22;39320;53.214;6.556;2022-09-23T07:59:22;13.40;99.90
51908;DHT22;39320;53.214;6.556;2022-09-23T08:01:49;13.40;99.90
51908;DHT22;39320;53.214;6.556;2022-09-23T08:04:29;13.50;99.90
51908;DHT22;39320;53.214;6.556;2022-09-23T08:07:00;13.50;99.90
51908;DHT22;39320;53.214;6.556;2022-09-23T08:09:32;13.50;99.90
51908;DHT22;39320;53.214;6.556;2022-09-23T08:11:59;13.50;99.90
51908;DHT22;39320;53.214;6.556;2022-09-23T08:14:25;13.50;99.90
51908;DHT22;39320;53.214;6.556;2022-09-23T08:16:50;13.50;99.90
51908;DHT22;39320;53.214;6.556;2022-09-23T08:19:17;13.50;99.90
51908;DHT22;39320;53.214;6.556;2022-09-23T08:21:44;13.60;99.90
51908;DHT22;39320;53.214;6.556;2022-09-23T08:24:21;13.60;99.90
51908;DHT22;39320;53.214;6.556;2022-09-23T08:26:49;13.60;99.90
51908;DHT22;39320;53.214;6.556;2022-09-23T08:29:18;13.60;99.90
51908;DHT22;39320;53.214;6.556;2022-09-23T08:31:45;13.60;99.90
51908;DHT22;39320;53.214;6.556;2022-09-23T08:34:11;13.70;99.90
51908;DHT22;39320;53.214;6.556;2022-09-23T08:36:38;13.70;99.90
51908;DHT22;39320;53.214;6.556;2022-09-23T08:39:04;13.70;99.90
51908;DHT22;39320;53.214;6.556;2022-09-23T08:44:16;13.80;99.90
51908;DHT22;39320;53.214;6.556;2022-09-23T08:47:02;13.80;99.90
51908;DHT22;39320;53.214;6.556;2022-09-23T08:49:34;13.80;99.90
51908;DHT22;39320;53.214;6.556;2022-09-23T08:52:12;13.80;99.90
51908;DHT22;39320;53.214;6.556;2022-09-23T08:54:39;13.90;99.90
51908;DHT22;39320;53.214;6.556;2022-09-23T08:57:06;13.90;99.90
51908;DHT22;39320;53.214;6.556;2022-09-23T08:59:40;13.90;99.90
51908;DHT22;39320;53.214;6.556;2022-09-23T09:02:26;13.90;99.90
51908;DHT22;39320;53.214;6.556;2022-09-23T09:04:55;13.90;99.90
51908;DHT22;39320;53.214;6.556;2022-09-23T09:07:28;14.00;99.90
51908;DHT22;39320;53.214;6.556;2022-09-23T09:10:17;14.00;99.90
51908;DHT22;39320;53.214;6.556;2022-09-23T09:12:45;14.10;99.90
51908;DHT22;39320;53.214;6.556;2022-09-23T09:15:17;14.10;99.90
51908;DHT22;39320;53.214;6.556;2022-09-23T09:18:02;14.10;99.90
51908;DHT22;39320;53.214;6.556;2022-09-23T09:23:31;14.20;99.90
51908;DHT22;39320;53.214;6.556;2022-09-23T09:25:56;14.20;99.90
51908;DHT22;39320;53.214;6.556;2022-09-23T09:37:27;14.30;99.90
51908;DHT22;39320;53.214;6.556;2022-09-23T09:39:54;14.40;99.90
51908;DHT22;39320;53.214;6.556;2022-09-23T09:42:26;14.40;99.90
51908;DHT22;39320;53.214;6.556;2022-09-23T09:45:00;14.40;99.90
51908;DHT22;39320;53.214;6.556;2022-09-23T09:50:14;14.50;99.90
51908;DHT22;39320;53.214;6.556;2022-09-23T09:52:45;14.50;99.90
51908;DHT22;39320;53.214;6.556;2022-09-23T09:55:15;14.50;99.90
51908;DHT22;39320;53.214;6.556;2022-09-23T09:57:49;14.50;99.90
51908;DHT22;39320;53.214;6.556;2022-09-23T10:02:54;14.60;99.90
51908;DHT22;39320;53.214;6.556;2022-09-23T10:07:51;14.60;99.90
51908;DHT22;39320;53.214;6.556;2022-09-23T10:10:20;14.60;99.90
51908;DHT22;39320;53.214;6.556;2022-09-23T10:12:46;14.60;99.90
51908;DHT22;39320;53.214;6.556;2022-09-23T10:15:30;14.60;99.90
51908;DHT22;39320;53.214;6.556;2022-09-23T10:17:59;14.60;99.90
51908;DHT22;39320;53.214;6.556;2022-09-23T10:20:33;14.60;99.90
51908;DHT22;39320;53.214;6.556;2022-09-23T10:23:10;14.70;99.90
51908;DHT22;39320;53.214;6.556;2022-09-23T10:25:39;14.70;99.90
51908;DHT22;39320;53.214;6.556;2022-09-23T10:28:58;14.70;99.90
51908;DHT22;39320;53.214;6.556;2022-09-23T10:31:34;14.70;99.90
51908;DHT22;39320;53.214;6.556;2022-09-23T10:34:02;14.70;99.90
51908;DHT22;39320;53.214;6.556;2022-09-23T10:36:31;14.70;99.90
51908;DHT22;39320;53.214;6.556;2022-09-23T10:39:00;14.70;99.90
51908;DHT22;39320;53.214;6.556;2022-09-23T10:42:12;14.70;99.90
51908;DHT22;39320;53.214;6.556;2022-09-23T10:45:17;14.80;99.90
51908;DHT22;39320;53.214;6.556;2022-09-23T10:48:25;14.80;99.90
51908;DHT22;39320;53.214;6.556;2022-09-23T10:50:54;14.80;99.90
51908;DHT22;39320;53.214;6.556;2022-09-23T10:57:00;14.90;99.90
51908;DHT22;39320;53.214;6.556;2022-09-23T11:00:08;14.90;99.90
51908;DHT22;39320;53.214;6.556;2022-09-23T11:03:13;14.90;99.90
51908;DHT22;39320;53.214;6.556;2022-09-23T11:11:20;15.00;99.90
51908;DHT22;39320;53.214;6.556;2022-09-23T11:20:23;15.10;99.90
51908;DHT22;39320;53.214;6.556;2022-09-23T11:34:32;15.20;99.90
51908;DHT22;39320;53.214;6.556;2022-09-23T11:37:32;15.20;99.90
51908;DHT22;39320;53.214;6.556;2022-09-23T11:48:21;15.20;99.90
51908;DHT22;39320;53.214;6.556;2022-09-23T11:51:04;15.20;99.90
51908;DHT22;39320;53.214;6.556;2022-09-23T11:53:47;15.20;99.90
51908;DHT22;39320;53.214;6.556;2022-09-23T11:56:24;15.20;99.90
51908;DHT22;39320;53.214;6.556;2022-09-23T11:59:17;15.20;99.90
51908;DHT22;39320;53.214;6.556;2022-09-23T12:01:53;15.20;99.90
51908;DHT22;39320;53.214;6.556;2022-09-23T12:04:29;15.20;99.90
51908;DHT22;39320;53.214;6.556;2022-09-23T12:07:13;15.20;99.90
51908;DHT22;39320;53.214;6.556;2022-09-23T12:15:25;15.30;99.90
51908;DHT22;39320;53.214;6.556;2022-09-23T12:21:04;15.40;99.90
51908;DHT22;39320;53.214;6.556;2022-09-23T12:26:23;15.40;99.90
51908;DHT22;39320;53.214;6.556;2022-09-23T12:28:52;15.40;99.90
51908;DHT22;39320;53.214;6.556;2022-09-23T12:31:22;15.40;99.90
51908;DHT22;39320;53.214;6.556;2022-09-23T12:33:57;15.40;99.90
51908;DHT22;39320;53.214;6.556;2022-09-23T12:36:30;15.40;99.90
51908;DHT22;39320;53.214;6.556;2022-09-23T12:39:21;15.50;99.90
51908;DHT22;39320;53.214;6.556;2022-09-23T12:41:58;15.50;99.90
51908;DHT22;39320;53.214;6.556;2022-09-23T12:44:34;15.60;99.90
51908;DHT22;39320;53.214;6.556;2022-09-23T12:49:46;15.50;99.90
51908;DHT22;39320;53.214;6.556;2022-09-23T12:54:43;15.50;99.90
51908;DHT22;39320;53.214;6.556;2022-09-23T12:57:11;15.50;99.90
51908;DHT22;39320;53.214;6.556;2022-09-23T12:59:57;15.50;99.90
51908;DHT22;39320;53.214;6.556;2022-09-23T13:02:57;15.60;99.90
51908;DHT22;39320;53.214;6.556;2022-09-23T13:05:46;15.60;99.90
51908;DHT22;39320;53.214;6.556;2022-09-23T13:08:35;15.60;99.90
51908;DHT22;39320;53.214;6.556;2022-09-23T13:11:05;15.60;99.90
51908;DHT22;39320;53.214;6.556;2022-09-23T13:13:43;15.60;99.90
51908;DHT22;39320;53.214;6.556;2022-09-23T13:29:49;15.50;99.90
51908;DHT22;39320;53.214;6.556;2022-09-23T13:32:18;15.50;99.90
51908;DHT22;39320;53.214;6.556;2022-09-23T13:35:03;15.50;99.90
51908;DHT22;39320;53.214;6.556;2022-09-23T13:37:38;15.50;99.90
51908;DHT22;39320;53.214;6.556;2022-09-23T13:40:18;15.50;99.90
51908;DHT22;39320;53.214;6.556;2022-09-23T13:42:49;15.50;99.90
51908;DHT22;39320;53.214;6.556;2022-09-23T13:45:18;15.50;99.90
51908;DHT22;39320;53.214;6.556;2022-09-23T13:47:47;15.50;99.90
51908;DHT22;39320;53.214;6.556;2022-09-23T13:50:19;15.50;99.90
51908;DHT22;39320;53.214;6.556;2022-09-23T13:52:54;15.50;99.90
51908;DHT22;39320;53.214;6.556;2022-09-23T13:55:26;15.50;99.90
51908;DHT22;39320;53.214;6.556;2022-09-23T14:00:37;15.40;99.90
51908;DHT22;39320;53.214;6.556;2022-09-23T14:03:37;15.40;99.90
51908;DHT22;39320;53.214;6.556;2022-09-23T14:06:09;15.40;99.90
51908;DHT22;39320;53.214;6.556;2022-09-23T14:08:37;15.40;99.90
51908;DHT22;39320;53.214;6.556;2022-09-23T14:11:04;15.30;99.90
51908;DHT22;39320;53.214;6.556;2022-09-23T14:13:36;15.30;99.90
51908;DHT22;39320;53.214;6.556;2022-09-23T14:16:02;15.20;99.90
51908;DHT22;39320;53.214;6.556;2022-09-23T14:18:38;15.20;99.90
51908;DHT22;39320;53.214;6.556;2022-09-23T14:21:05;15.20;99.90
51908;DHT22;39320;53.214;6.556;2022-09-23T14:23:47;15.20;99.90
51908;DHT22;39320;53.214;6.556;2022-09-23T14:26:13;15.10;99.90
51908;DHT22;39320;53.214;6.556;2022-09-23T14:28:39;15.10;99.90
51908;DHT22;39320;53.214;6.556;2022-09-23T14:31:05;15.10;99.90
51908;DHT22;39320;53.214;6.556;2022-09-23T14:33:32;15.10;99.90
51908;DHT22;39320;53.214;6.556;2022-09-23T14:36:05;15.10;99.90
51908;DHT22;39320;53.214;6.556;2022-09-23T14:38:33;15.10;99.90
51908;DHT22;39320;53.214;6.556;2022-09-23T14:41:20;15.10;99.90
51908;DHT22;39320;53.214;6.556;2022-09-23T14:43:59;15.00;99.90
51908;DHT22;39320;53.214;6.556;2022-09-23T14:46:26;15.00;99.90
51908;DHT22;39320;53.214;6.556;2022-09-23T14:48:55;15.00;99.90
51908;DHT22;39320;53.214;6.556;2022-09-23T14:51:32;15.10;99.90
51908;DHT22;39320;53.214;6.556;2022-09-23T14:56:54;15.10;99.90
51908;DHT22;39320;53.214;6.556;2022-09-23T14:59:32;15.00;99.90
51908;DHT22;39320;53.214;6.556;2022-09-23T15:01:59;15.00;99.90
51908;DHT22;39320;53.214;6.556;2022-09-23T15:07:01;15.00;99.90
51908;DHT22;39320;53.214;6.556;2022-09-23T15:09:35;15.00;99.90
51908;DHT22;39320;53.214;6.556;2022-09-23T15:12:14;15.00;99.90
51908;DHT22;39320;53.214;6.556;2022-09-23T15:14:48;15.00;99.90
51908;DHT22;39320;53.214;6.556;2022-09-23T15:20:00;15.00;99.90
51908;DHT22;39320;53.214;6.556;2022-09-23T15:22:26;15.00;99.90
51908;DHT22;39320;53.214;6.556;2022-09-23T15:25:07;15.00;99.90
51908;DHT22;39320;53.214;6.556;2022-09-23T15:27:35;14.90;99.90
51908;DHT22;39320;53.214;6.556;2022-09-23T15:30:27;15.00;99.90
51908;DHT22;39320;53.214;6.556;2022-09-23T15:32:53;15.00;99.90
51908;DHT22;39320;53.214;6.556;2022-09-23T15:35:21;15.10;99.90
51908;DHT22;39320;53.214;6.556;2022-09-23T15:37:50;15.00;99.90
51908;DHT22;39320;53.214;6.556;2022-09-23T15:40:21;15.00;99.90
51908;DHT22;39320;53.214;6.556;2022-09-23T15:42:48;15.00;99.90
51908;DHT22;39320;53.214;6.556;2022-09-23T15:45:35;15.00;99.90
51908;DHT22;39320;53.214;6.556;2022-09-23T15:48:06;15.00;99.90
51908;DHT22;39320;53.214;6.556;2022-09-23T15:50:36;15.00;99.90
51908;DHT22;39320;53.214;6.556;2022-09-23T15:53:03;15.00;99.90
51908;DHT22;39320;53.214;6.556;2022-09-23T15:55:30;15.00;99.90
51908;DHT22;39320;53.214;6.556;2022-09-23T15:57:56;15.00;99.90
51908;DHT22;39320;53.214;6.556;2022-09-23T16:00:22;15.00;99.90
51908;DHT22;39320;53.214;6.556;2022-09-23T16:02:49;15.00;99.90
51908;DHT22;39320;53.214;6.556;2022-09-23T16:07:47;15.00;99.90
51908;DHT22;39320;53.214;6.556;2022-09-23T16:10:13;15.00;99.90
51908;DHT22;39320;53.214;6.556;2022-09-23T16:12:40;15.00;99.90
51908;DHT22;39320;53.214;6.556;2022-09-23T16:15:19;15.00;99.90
51908;DHT22;39320;53.214;6.556;2022-09-23T16:17:45;15.00;99.90
51908;DHT22;39320;53.214;6.556;2022-09-23T16:20:12;15.10;99.90
51908;DHT22;39320;53.214;6.556;2022-09-23T16:22:53;15.10;99.90
51908;DHT22;39320;53.214;6.556;2022-09-23T16:25:22;15.10;99.90
51908;DHT22;39320;53.214;6.556;2022-09-23T16:27:49;15.10;99.90
51908;DHT22;39320;53.214;6.556;2022-09-23T16:30:19;15.10;99.90
51908;DHT22;39320;53.214;6.556;2022-09-23T16:32:45;15.10;99.90
51908;DHT22;39320;53.214;6.556;2022-09-23T16:35:10;15.10;99.90
51908;DHT22;39320;53.214;6.556;2022-09-23T16:37:36;15.00;99.90
51908;DHT22;39320;53.214;6.556;2022-09-23T16:40:02;15.00;99.90
51908;DHT22;39320;53.214;6.556;2022-09-23T16:42:28;15.10;99.90
51908;DHT22;39320;53.214;6.556;2022-09-23T16:44:54;15.00;99.90
51908;DHT22;39320;53.214;6.556;2022-09-23T16:47:20;15.00;99.90
51908;DHT22;39320;53.214;6.556;2022-09-23T16:49:46;15.00;99.90
51908;DHT22;39320;53.214;6.556;2022-09-23T16:52:12;15.00;99.90
51908;DHT22;39320;53.214;6.556;2022-09-23T16:54:41;15.10;99.90
51908;DHT22;39320;53.214;6.556;2022-09-23T16:57:08;15.00;99.90
51908;DHT22;39320;53.214;6.556;2022-09-23T16:59:34;15.10;99.90
51908;DHT22;39320;53.214;6.556;2022-09-23T17:02:35;15.00;99.90
51908;DHT22;39320;53.214;6.556;2022-09-23T17:05:19;15.00;99.90
51908;DHT22;39320;53.214;6.556;2022-09-23T17:07:45;15.00;99.90
51908;DHT22;39320;53.214;6.556;2022-09-23T17:10:11;15.00;99.90
51908;DHT22;39320;53.214;6.556;2022-09-23T17:12:36;15.00;99.90
51908;DHT22;39320;53.214;6.556;2022-09-23T17:15:04;15.00;99.90
51908;DHT22;39320;53.214;6.556;2022-09-23T17:17:35;15.10;99.90
51908;DHT22;39320;53.214;6.556;2022-09-23T17:20:05;15.00;99.90
51908;DHT22;39320;53.214;6.556;2022-09-23T17:22:34;15.10;99.90
51908;DHT22;39320;53.214;6.556;2022-09-23T17:25:00;15.00;99.90
51908;DHT22;39320;53.214;6.556;2022-09-23T17:27:28;15.00;99.90
51908;DHT22;39320;53.214;6.556;2022-09-23T17:29:56;15.00;99.90
51908;DHT22;39320;53.214;6.556;2022-09-23T17:32:23;14.90;99.90
51908;DHT22;39320;53.214;6.556;2022-09-23T17:34:49;15.00;99.90
51908;DHT22;39320;53.214;6.556;2022-09-23T17:37:14;15.00;99.90
51908;DHT22;39320;53.214;6.556;2022-09-23T17:39:40;15.00;99.90
51908;DHT22;39320;53.214;6.556;2022-09-23T17:42:07;15.00;99.90
51908;DHT22;39320;53.214;6.556;2022-09-23T17:44:33;15.00;99.90
51908;DHT22;39320;53.214;6.556;2022-09-23T17:46:59;15.10;99.90
51908;DHT22;39320;53.214;6.556;2022-09-23T17:49:30;15.00;99.90
51908;DHT22;39320;53.214;6.556;2022-09-23T17:52:03;15.00;99.90
51908;DHT22;39320;53.214;6.556;2022-09-23T17:54:33;15.00;99.90
51908;DHT22;39320;53.214;6.556;2022-09-23T17:57:00;15.00;99.90
51908;DHT22;39320;53.214;6.556;2022-09-23T17:59:27;15.00;99.90
51908;DHT22;39320;53.214;6.556;2022-09-23T18:01:52;15.00;99.90
51908;DHT22;39320;53.214;6.556;2022-09-23T18:04:18;14.90;99.90
51908;DHT22;39320;53.214;6.556;2022-09-23T18:06:44;15.00;99.90
51908;DHT22;39320;53.214;6.556;2022-09-23T18:09:11;15.00;99.90
51908;DHT22;39320;53.214;6.556;2022-09-23T18:11:40;14.90;99.90
51908;DHT22;39320;53.214;6.556;2022-09-23T18:14:19;14.90;99.90
51908;DHT22;39320;53.214;6.556;2022-09-23T18:16:49;14.90;99.90